createdAt,value
2023-04-27T00:02:06.552Z,82.23
2023-04-27T00:04:59.955Z,82.51
2023-04-27T00:11:54.305Z,83.23
2023-04-27T00:14:39.190Z,83.65
2023-04-27T00:17:42.948Z,84.44
2023-04-27T00:20:44.266Z,84.52
2023-04-27T00:23:48.692Z,84.98
2023-04-27T00:26:29.472Z,84.97
2023-04-27T00:29:29.371Z,85.38
2023-04-27T00:32:02.554Z,85.99
2023-04-27T00:34:56.655Z,86.08
2023-04-27T00:38:25.695Z,85.71
2023-04-27T00:41:26.648Z,85.38
2023-04-27T00:44:10.373Z,85.41
2023-04-27T00:46:47.988Z,85.70
2023-04-27T00:49:50.392Z,86.22
2023-04-27T00:52:53.712Z,86.44
2023-04-27T00:55:46.673Z,85.98
2023-04-27T00:58:40.503Z,85.57
2023-04-27T01:01:41.379Z,85.61
2023-04-27T01:04:36.042Z,85.85
2023-04-27T01:07:31.017Z,86.09
2023-04-27T01:11:02.691Z,85.92
2023-04-27T01:13:58.953Z,85.95
2023-04-27T01:16:52.086Z,86.22
2023-04-27T01:19:36.848Z,86.41
2023-04-27T01:22:19.377Z,86.52
2023-04-27T01:25:19.980Z,86.71
2023-04-27T01:28:08.923Z,86.11
2023-04-27T01:31:39.862Z,85.62
2023-04-27T01:34:19.749Z,85.40
2023-04-27T01:37:10.686Z,85.22
2023-04-27T01:42:19.807Z,85.27
2023-04-27T01:45:02.130Z,85.44
2023-04-27T01:48:07.842Z,85.19
2023-04-27T01:50:48.555Z,85.03
2023-04-27T01:53:28.210Z,84.55
2023-04-27T02:02:42.270Z,84.08
2023-04-27T02:06:05.969Z,83.54
2023-04-27T02:08:45.753Z,83.54
2023-04-27T02:11:23.430Z,83.30
2023-04-27T02:13:58.171Z,83.31
2023-04-27T02:16:45.140Z,83.50
2023-04-27T02:19:28.050Z,83.84
2023-04-27T02:22:01.397Z,83.66
2023-04-27T02:24:50.474Z,83.97
2023-04-27T02:27:24.428Z,84.06
2023-04-27T02:30:04.882Z,83.82
2023-04-27T02:41:28.025Z,84.61
2023-04-27T02:44:14.392Z,84.66
2023-04-27T02:46:53.354Z,85.10
2023-04-27T02:50:16.487Z,85.32
2023-04-27T02:53:22.754Z,85.48
2023-04-27T02:57:03.939Z,85.73
2023-04-27T03:00:50.988Z,85.95
2023-04-27T03:03:55.665Z,86.25
2023-04-27T03:06:33.536Z,86.63
2023-04-27T03:09:12.742Z,87.23
2023-04-27T03:15:52.132Z,87.51
2023-04-27T03:19:48.246Z,87.89
2023-04-27T03:22:49.490Z,88.48
2023-04-27T03:26:16.593Z,89.06
2023-04-27T03:29:19.419Z,88.87
2023-04-27T03:32:12.681Z,88.82
2023-04-27T03:35:15.080Z,89.01
2023-04-27T03:38:37.838Z,89.55
2023-04-27T03:41:28.849Z,89.73
2023-04-27T03:44:19.747Z,89.55
2023-04-27T03:47:01.367Z,89.92
2023-04-27T03:50:47.157Z,89.77
2023-04-27T03:54:24.260Z,90.39
2023-04-27T03:57:16.520Z,90.50
2023-04-27T03:59:56.377Z,90.87
2023-04-27T04:02:40.129Z,91.10
2023-04-27T04:05:18.001Z,90.95
2023-04-27T04:07:52.881Z,91.05
2023-04-27T04:10:33.641Z,91.03
2023-04-27T04:13:12.316Z,91.21
2023-04-27T04:16:53.821Z,90.98
2023-04-27T04:19:46.916Z,89.03
2023-04-27T04:23:15.778Z,87.61
2023-04-27T04:26:18.044Z,86.72
2023-04-27T04:29:21.749Z,86.51
2023-04-27T04:36:41.451Z,86.41
2023-04-27T04:43:48.124Z,87.52
2023-04-27T04:47:32.749Z,87.69
2023-04-27T04:50:38.809Z,87.78
2023-04-27T04:53:55.900Z,87.03
2023-04-27T05:00:19.594Z,87.39
2023-04-27T05:20:19.213Z,90.19
2023-04-27T11:39:18.875Z,83.12
2023-04-27T12:15:13.980Z,84.81
2023-04-27T12:18:46.535Z,85.11
2023-04-27T12:43:07.253Z,81.06
2023-04-27T12:55:00.896Z,84.21
2023-04-27T13:26:41.422Z,98.93
2023-04-27T13:49:10.345Z,100.00
2023-04-27T14:01:31.902Z,100.00
2023-04-27T14:04:50.114Z,100.00
2023-04-27T14:07:53.155Z,100.00
2023-04-27T14:11:56.803Z,100.00
2023-04-27T14:15:12.179Z,100.00
2023-04-27T14:18:17.294Z,100.00
2023-04-27T14:22:10.809Z,100.00
2023-04-27T14:25:21.233Z,100.00
2023-04-27T14:28:30.077Z,100.00
2023-04-27T14:31:52.314Z,100.00
2023-04-27T14:38:59.493Z,100.00
2023-04-27T14:42:06.216Z,100.00
2023-04-27T14:50:28.814Z,100.00
2023-04-27T14:53:31.459Z,100.00
2023-04-27T14:57:22.423Z,100.00
2023-04-27T15:09:08.178Z,100.00
2023-04-27T15:11:59.153Z,100.00
2023-04-27T15:14:38.674Z,100.00
2023-04-27T15:18:38.980Z,100.00
2023-04-27T15:21:52.053Z,100.00
2023-04-27T15:30:35.456Z,100.00
2023-04-27T17:47:15.660Z,94.93
2023-04-27T17:54:32.657Z,94.30
2023-04-27T18:48:20.006Z,95.79
2023-04-27T18:51:31.914Z,95.92
2023-04-27T18:55:19.601Z,96.06
2023-04-27T18:58:23.265Z,96.23
2023-04-27T19:01:50.276Z,96.09
2023-04-27T19:18:10.585Z,95.27
2023-04-27T19:21:19.731Z,95.21
2023-04-27T19:24:49.880Z,95.83
2023-04-27T19:32:55.355Z,95.37
2023-04-27T19:35:41.032Z,95.67
2023-04-27T19:38:36.330Z,96.22
2023-04-27T19:46:22.896Z,95.86
2023-04-27T20:02:44.125Z,95.41
2023-04-27T20:20:01.189Z,94.56
2023-04-27T20:24:03.735Z,94.42
2023-04-27T20:27:22.418Z,94.25
2023-04-27T20:44:39.268Z,94.46
2023-04-27T20:47:59.367Z,94.81
2023-04-27T20:59:20.545Z,94.43
2023-04-27T21:07:02.923Z,93.59
2023-04-27T21:10:27.825Z,93.31
2023-04-27T21:14:55.734Z,93.19
2023-04-27T21:25:34.392Z,92.62
2023-04-27T21:30:43.352Z,92.05
2023-04-27T21:33:14.537Z,92.26
2023-04-27T21:35:50.855Z,91.93
2023-04-27T21:38:29.500Z,91.45
2023-04-27T21:41:03.593Z,91.10
2023-04-27T21:43:35.033Z,91.31
2023-04-27T21:46:18.828Z,90.76
2023-04-27T21:48:48.123Z,90.87
2023-04-27T21:51:16.891Z,90.73
2023-04-27T21:53:45.742Z,90.71
2023-04-27T21:56:14.980Z,90.30
2023-04-27T21:58:44.872Z,90.44
2023-04-27T22:01:15.072Z,90.21
2023-04-27T22:03:43.809Z,90.02
2023-04-27T22:06:14.969Z,90.10
2023-04-27T22:08:44.056Z,90.19
2023-04-27T22:11:15.092Z,90.01
2023-04-27T22:13:44.799Z,90.07
2023-04-27T22:16:14.914Z,89.98
2023-04-27T22:18:42.597Z,89.45
2023-04-27T22:21:10.597Z,89.37
2023-04-27T22:23:42.684Z,89.76
2023-04-27T22:26:11.929Z,89.52
2023-04-27T22:28:40.926Z,88.90
2023-04-27T22:31:09.318Z,89.25
2023-04-27T22:33:42.906Z,89.45
2023-04-27T22:36:17.364Z,89.45
2023-04-27T22:38:45.837Z,88.90
2023-04-27T22:41:14.896Z,88.96
2023-04-27T22:43:42.503Z,88.73
2023-04-27T22:46:13.592Z,89.02
2023-04-27T22:48:42.101Z,88.99
2023-04-27T22:51:10.547Z,88.92
2023-04-27T22:53:38.250Z,88.78
2023-04-27T22:56:07.451Z,88.90
2023-04-27T22:58:37.004Z,88.66
2023-04-27T23:01:06.432Z,88.35
2023-04-27T23:03:40.018Z,88.48
2023-04-27T23:06:14.423Z,88.58
2023-04-27T23:08:45.885Z,87.89
2023-04-27T23:11:13.982Z,88.31
2023-04-27T23:13:41.354Z,88.62
2023-04-27T23:16:10.519Z,88.33
2023-04-27T23:18:39.038Z,88.08
2023-04-27T23:21:08.159Z,87.94
2023-04-27T23:23:36.405Z,88.16
2023-04-27T23:26:04.025Z,88.09
2023-04-27T23:28:31.625Z,88.35
2023-04-27T23:30:59.016Z,88.54
2023-04-27T23:33:26.658Z,88.41
2023-04-27T23:35:56.076Z,88.76
2023-04-27T23:38:38.460Z,88.51
2023-04-27T23:41:05.749Z,87.93
2023-04-27T23:47:40.080Z,87.38
2023-04-27T23:50:25.472Z,86.81
2023-04-27T23:53:14.285Z,86.83
2023-04-27T23:59:21.168Z,86.88
